Time;durP1;ratioP1;P1;durP2;ratioP2;P2;SDS_P1;SDS_P2;PMS_P1;PMS_P2;Temp;Humidity;BMP_temperature;BMP_pressure;BME280_temperature;BME280_humidity;BME280_pressure;Samples;Min_cycle;Max_cycle;Signal;HPM_P1;HPM_P2
2022/05/07 00:00:54;;;;;;;54.20;49.90;;;9.60;99.90;;;;;;4996524;28;20462;-80
2022/05/07 00:03:22;;;;;;;43.70;39.50;;;9.60;99.90;;;;;;4996743;28;20551;-80
2022/05/07 00:05:49;;;;;;;34.37;31.20;;;9.60;99.90;;;;;;4997104;28;20545;-80
2022/05/07 00:08:16;;;;;;;31.90;26.50;;;9.60;99.90;;;;;;4996650;28;20482;-80
2022/05/07 00:10:43;;;;;;;40.23;36.47;;;9.50;99.90;;;;;;4999397;28;20497;-80
2022/05/07 00:13:10;;;;;;;54.70;50.90;;;9.40;99.90;;;;;;4998436;28;20462;-80
2022/05/07 00:15:37;;;;;;;66.63;61.93;;;9.40;99.90;;;;;;5000205;28;20450;-81
2022/05/07 00:18:05;;;;;;;61.90;57.80;;;9.40;99.90;;;;;;4999304;28;20478;-80
2022/05/07 00:20:34;;;;;;;61.20;56.57;;;9.40;99.90;;;;;;4999004;28;20450;-82
2022/05/07 00:23:01;;;;;;;67.63;62.83;;;9.50;99.90;;;;;;4999404;28;20458;-80
2022/05/07 00:25:29;;;;;;;56.23;51.30;;;9.50;99.90;;;;;;4998431;28;20951;-81
2022/05/07 00:27:56;;;;;;;62.43;58.20;;;9.40;99.90;;;;;;4997782;28;20478;-80
2022/05/07 00:30:22;;;;;;;73.27;68.37;;;9.40;99.90;;;;;;4998669;28;20481;-81
2022/05/07 00:32:49;;;;;;;72.10;66.93;;;9.50;99.90;;;;;;4999808;28;20450;-81
2022/05/07 00:35:16;;;;;;;56.20;52.10;;;9.50;99.90;;;;;;4999288;28;20463;-81
2022/05/07 00:37:44;;;;;;;51.37;47.03;;;9.50;99.90;;;;;;4999484;28;20525;-81
2022/05/07 00:40:11;;;;;;;51.07;47.07;;;9.50;99.90;;;;;;4999116;28;20453;-81
2022/05/07 00:42:38;;;;;;;44.63;41.13;;;9.50;99.90;;;;;;4999640;28;20454;-81
2022/05/07 00:45:05;;;;;;;46.57;42.77;;;9.50;99.90;;;;;;4999147;28;20450;-81
2022/05/07 00:47:32;;;;;;;55.17;51.07;;;9.50;99.90;;;;;;4998628;28;20474;-81
2022/05/07 00:52:44;;;;;;;66.60;62.27;;;9.50;99.90;;;;;;4998447;28;20477;-81
2022/05/07 00:55:11;;;;;;;74.60;69.30;;;9.50;99.90;;;;;;4998296;28;20457;-81
2022/05/07 00:57:39;;;;;;;70.53;66.13;;;9.50;99.90;;;;;;4998164;28;20480;-81
2022/05/07 01:00:07;;;;;;;78.03;72.93;;;9.50;99.90;;;;;;4997566;28;20567;-81
2022/05/07 01:02:36;;;;;;;69.60;64.60;;;9.60;99.90;;;;;;4998046;28;20454;-82
2022/05/07 01:05:03;;;;;;;70.60;65.90;;;9.50;99.90;;;;;;4998575;28;20881;-81
2022/05/07 01:07:32;;;;;;;71.47;66.77;;;9.50;99.90;;;;;;4998788;28;20481;-81
2022/05/07 01:10:01;;;;;;;89.73;84.80;;;9.50;99.90;;;;;;4997652;28;20450;-81
2022/05/07 01:12:28;;;;;;;82.87;77.83;;;9.60;99.90;;;;;;4998308;28;20454;-81
2022/05/07 01:14:57;;;;;;;78.13;73.33;;;9.50;99.90;;;;;;4998003;28;20454;-81
2022/05/07 01:17:24;;;;;;;69.50;64.53;;;9.50;99.90;;;;;;4997623;28;20481;-81
2022/05/07 01:19:52;;;;;;;79.07;74.27;;;9.40;99.90;;;;;;4998095;28;20528;-82
2022/05/07 01:22:21;;;;;;;75.73;70.13;;;9.40;99.90;;;;;;4997962;28;20461;-81
2022/05/07 01:24:49;;;;;;;65.57;61.17;;;9.30;99.90;;;;;;4998478;28;20454;-81
2022/05/07 01:27:16;;;;;;;94.03;89.03;;;9.20;99.90;;;;;;4997674;28;20474;-81
2022/05/07 01:29:43;;;;;;;160.20;152.67;;;9.10;99.90;;;;;;4998024;28;20450;-81
2022/05/07 01:32:10;;;;;;;179.13;171.13;;;9.10;99.90;;;;;;4997583;28;20454;-80
2022/05/07 01:34:37;;;;;;;188.57;179.87;;;9.20;99.90;;;;;;4998367;28;20462;-81
2022/05/07 01:37:04;;;;;;;196.50;187.37;;;9.20;99.90;;;;;;4997809;28;20474;-81
2022/05/07 01:39:32;;;;;;;196.07;186.87;;;9.20;99.90;;;;;;4999476;28;20836;-81
2022/05/07 01:41:59;;;;;;;191.90;182.80;;;9.40;99.90;;;;;;5002482;28;20457;-81
2022/05/07 01:44:26;;;;;;;171.13;163.07;;;9.40;99.90;;;;;;5002029;28;20832;-81
2022/05/07 01:49:36;;;;;;;131.50;124.60;;;9.30;99.90;;;;;;5001500;28;20465;-81
2022/05/07 01:52:04;;;;;;;137.77;130.60;;;9.30;99.90;;;;;;5001514;28;20450;-81
2022/05/07 01:54:32;;;;;;;161.47;154.10;;;9.30;99.90;;;;;;5002271;28;20454;-83
2022/05/07 01:56:59;;;;;;;218.87;209.60;;;9.20;99.90;;;;;;5001292;28;20473;-81
2022/05/07 01:59:25;;;;;;;217.53;208.73;;;9.30;99.90;;;;;;5001898;28;20477;-81
2022/05/07 02:01:52;;;;;;;214.90;205.60;;;9.30;99.90;;;;;;5001749;28;20450;-81
2022/05/07 02:04:19;;;;;;;168.97;161.27;;;9.30;99.90;;;;;;5002274;28;20454;-81
2022/05/07 02:06:46;;;;;;;173.50;165.47;;;9.40;99.90;;;;;;5002245;28;20470;-81
2022/05/07 02:09:13;;;;;;;186.10;177.63;;;9.30;99.90;;;;;;5001761;28;20450;-81
2022/05/07 02:11:41;;;;;;;185.07;176.97;;;9.30;99.90;;;;;;5002138;28;20449;-81
2022/05/07 02:14:07;;;;;;;206.10;197.53;;;9.20;99.90;;;;;;5001689;28;21013;-82
2022/05/07 02:16:34;;;;;;;140.10;133.40;;;9.20;99.90;;;;;;5001241;28;20477;-81
2022/05/07 02:19:01;;;;;;;124.20;118.20;;;9.10;99.90;;;;;;5001216;28;20481;-81
2022/05/07 02:21:28;;;;;;;100.17;94.17;;;9.00;99.90;;;;;;5001834;28;20454;-81
2022/05/07 02:23:55;;;;;;;128.47;121.67;;;8.90;99.90;;;;;;5001980;28;20525;-81
2022/05/07 02:26:21;;;;;;;245.33;235.03;;;8.80;99.90;;;;;;5000902;28;21070;-81
2022/05/07 02:28:50;;;;;;;310.70;298.20;;;8.70;99.90;;;;;;5001228;28;20462;-80
2022/05/07 02:31:16;;;;;;;397.90;380.53;;;8.80;99.90;;;;;;5001487;28;20911;-81
2022/05/07 02:33:43;;;;;;;398.27;380.77;;;8.80;99.90;;;;;;5001841;28;20970;-81
2022/05/07 02:36:10;;;;;;;406.93;389.17;;;8.80;99.90;;;;;;5001343;28;20453;-81
2022/05/07 02:38:38;;;;;;;424.90;406.37;;;8.80;99.90;;;;;;5001009;28;20473;-81
2022/05/07 02:43:50;;;;;;;446.63;426.13;;;8.80;99.90;;;;;;5001311;28;20985;-82
2022/05/07 02:46:17;;;;;;;436.80;417.50;;;8.80;99.90;;;;;;5001348;28;20462;-81
2022/05/07 02:48:45;;;;;;;417.57;399.43;;;8.80;99.90;;;;;;5000735;28;20950;-81
2022/05/07 02:51:12;;;;;;;399.47;382.40;;;8.80;99.90;;;;;;5000547;28;20454;-81
2022/05/07 02:53:39;;;;;;;417.07;399.20;;;8.80;99.90;;;;;;5001085;28;20462;-81
2022/05/07 02:56:06;;;;;;;390.57;374.33;;;8.80;99.90;;;;;;4999936;28;20454;-79
2022/05/07 02:58:33;;;;;;;423.63;405.83;;;8.90;99.90;;;;;;4999632;28;20485;-80
2022/05/07 03:01:01;;;;;;;426.70;407.73;;;8.80;99.90;;;;;;4999543;28;20484;-80
2022/05/07 03:03:28;;;;;;;390.07;372.90;;;8.80;99.90;;;;;;5000005;28;20461;-80
2022/05/07 03:05:56;;;;;;;356.37;342.03;;;8.90;99.90;;;;;;5001208;28;20454;-81
2022/05/07 03:08:24;;;;;;;361.23;346.27;;;8.90;99.90;;;;;;5001436;28;20573;-81
2022/05/07 03:10:50;;;;;;;378.70;362.27;;;8.90;99.90;;;;;;5001841;28;20451;-81
2022/05/07 03:13:17;;;;;;;360.47;345.60;;;8.90;99.90;;;;;;5001629;28;20450;-80
2022/05/07 03:15:44;;;;;;;404.67;387.80;;;8.90;99.90;;;;;;5001579;28;20458;-81
2022/05/07 03:18:13;;;;;;;409.37;392.27;;;8.90;99.90;;;;;;5000014;28;20492;-80
2022/05/07 03:20:42;;;;;;;409.57;391.40;;;8.90;99.90;;;;;;5000980;28;20478;-81
2022/05/07 03:23:09;;;;;;;404.37;387.37;;;8.90;99.90;;;;;;4999677;28;20455;-80
2022/05/07 03:25:35;;;;;;;410.43;392.53;;;8.90;99.90;;;;;;4999888;28;20609;-80
2022/05/07 03:28:02;;;;;;;394.77;377.57;;;8.90;99.90;;;;;;4995098;28;20839;-80
2022/05/07 03:30:29;;;;;;;394.63;378.23;;;9.00;99.90;;;;;;4996460;28;20450;-80
2022/05/07 03:32:56;;;;;;;407.53;390.23;;;8.90;99.90;;;;;;4997777;28;20454;-80
2022/05/07 03:35:24;;;;;;;408.43;390.63;;;8.90;99.90;;;;;;4993911;28;20454;-79
2022/05/07 03:37:50;;;;;;;407.00;389.80;;;8.90;99.90;;;;;;4991939;28;20477;-79
2022/05/07 03:40:17;;;;;;;416.03;398.33;;;8.90;99.90;;;;;;4996052;28;20478;-79
2022/05/07 03:42:45;;;;;;;419.67;402.03;;;8.80;99.90;;;;;;4995127;28;20450;-80
2022/05/07 03:45:11;;;;;;;432.53;414.17;;;8.70;99.90;;;;;;5000678;28;20450;-82
2022/05/07 03:47:39;;;;;;;427.67;409.67;;;8.70;99.90;;;;;;5000919;28;20474;-80
2022/05/07 03:50:07;;;;;;;415.30;398.03;;;8.60;99.90;;;;;;4997157;28;20450;-80
2022/05/07 03:55:19;;;;;;;476.50;455.70;;;8.70;99.90;;;;;;4999614;28;20445;-81
2022/05/07 03:57:46;;;;;;;476.40;454.80;;;8.80;99.90;;;;;;4999678;28;20478;-80
2022/05/07 04:00:13;;;;;;;453.50;432.77;;;8.80;99.90;;;;;;5000831;28;20489;-80
2022/05/07 04:02:40;;;;;;;450.53;431.40;;;8.80;99.90;;;;;;5001457;28;20458;-81
2022/05/07 04:05:07;;;;;;;450.03;431.03;;;8.80;99.90;;;;;;4999861;28;20469;-80
2022/05/07 04:07:36;;;;;;;492.60;470.20;;;8.80;99.90;;;;;;5000288;28;20482;-80
2022/05/07 04:10:03;;;;;;;474.10;451.77;;;8.80;99.90;;;;;;5000005;28;20450;-80
2022/05/07 04:12:29;;;;;;;438.30;419.00;;;8.90;99.90;;;;;;4999742;28;20829;-81
2022/05/07 04:14:59;;;;;;;426.47;407.87;;;9.00;99.90;;;;;;5000818;28;20465;-80
2022/05/07 04:17:26;;;;;;;408.93;391.87;;;8.90;99.90;;;;;;4999728;28;20478;-79
2022/05/07 04:19:53;;;;;;;393.67;376.93;;;9.00;99.90;;;;;;4999002;28;20532;-80
2022/05/07 04:22:20;;;;;;;423.53;406.43;;;9.00;99.90;;;;;;4999391;28;20500;-80
2022/05/07 04:24:48;;;;;;;409.30;392.37;;;9.00;99.90;;;;;;4997688;28;21131;-80
2022/05/07 04:27:15;;;;;;;400.70;384.00;;;9.00;99.90;;;;;;4994351;28;20470;-80
2022/05/07 04:29:41;;;;;;;413.97;396.33;;;9.00;99.90;;;;;;4999341;28;20495;-83
2022/05/07 04:32:09;;;;;;;419.07;401.97;;;9.00;99.90;;;;;;5001252;28;20461;-80
2022/05/07 04:34:35;;;;;;;423.80;405.30;;;9.00;99.90;;;;;;4998720;28;20457;-81
2022/05/07 04:37:02;;;;;;;433.20;414.93;;;9.10;99.90;;;;;;5000632;28;20566;-81
2022/05/07 04:39:30;;;;;;;445.13;425.83;;;9.20;99.90;;;;;;4998445;28;20458;-80
2022/05/07 04:41:58;;;;;;;434.47;415.27;;;9.20;99.90;;;;;;4998929;28;20488;-80
2022/05/07 04:44:25;;;;;;;459.87;439.57;;;9.20;99.90;;;;;;4999124;28;20851;-80
2022/05/07 04:46:52;;;;;;;418.07;399.97;;;9.30;99.90;;;;;;4997713;28;20498;-80
2022/05/07 04:49:19;;;;;;;374.30;358.77;;;9.40;99.90;;;;;;4998635;28;20461;-80
2022/05/07 04:51:47;;;;;;;377.03;361.53;;;9.40;99.90;;;;;;4999003;28;20505;-80
2022/05/07 04:54:14;;;;;;;389.77;372.23;;;9.50;99.90;;;;;;4998180;28;20457;-80
2022/05/07 04:56:41;;;;;;;367.43;351.33;;;9.60;99.90;;;;;;4999529;28;20466;-81
2022/05/07 04:59:09;;;;;;;335.60;320.63;;;9.70;99.90;;;;;;5000213;28;20501;-81
2022/05/07 05:01:36;;;;;;;289.13;277.43;;;9.80;99.90;;;;;;4999936;28;20475;-81
2022/05/07 05:04:03;;;;;;;285.77;273.77;;;9.90;99.90;;;;;;4999738;28;20456;-81
2022/05/07 05:06:31;;;;;;;239.97;230.50;;;10.00;99.90;;;;;;4999561;28;20480;-81
2022/05/07 05:08:58;;;;;;;225.80;216.10;;;10.10;99.90;;;;;;4999021;28;20889;-81
2022/05/07 05:11:25;;;;;;;202.27;193.07;;;10.20;99.90;;;;;;4999841;28;20454;-81
2022/05/07 05:15:01;;;;;;;206.00;197.60;;;10.30;99.90;;;;;;4999198;28;20454;-81
2022/05/07 05:16:56;;;;;;;157.77;149.83;;;10.40;99.90;;;;;;5012490;23;20503;-79
2022/05/07 05:19:23;;;;;;;140.27;133.33;;;10.60;99.90;;;;;;4993482;28;20450;-80
2022/05/07 05:21:50;;;;;;;134.20;127.47;;;10.70;99.90;;;;;;4996113;28;20474;-80
2022/05/07 05:24:17;;;;;;;120.27;113.10;;;10.80;99.90;;;;;;4997097;28;20453;-80
2022/05/07 05:26:53;;;;;;;98.00;92.50;;;11.00;99.90;;;;;;5000859;28;20454;-81
2022/05/07 05:29:19;;;;;;;82.23;77.50;;;11.10;99.90;;;;;;5003410;28;20501;-82
2022/05/07 05:31:48;;;;;;;46.40;42.63;;;11.40;99.90;;;;;;5006898;28;20446;-82
2022/05/07 05:34:16;;;;;;;35.83;23.57;;;11.60;99.90;;;;;;5004711;28;20533;-82
2022/05/07 05:36:46;;;;;;;28.53;18.10;;;11.90;99.90;;;;;;5002590;28;20521;-83
2022/05/07 05:39:33;;;;;;;24.93;16.80;;;12.00;99.90;;;;;;4996612;28;20464;-84
2022/05/07 05:46:19;;;;;;;21.20;15.70;;;12.40;99.90;;;;;;4989074;28;20532;-84
2022/05/07 05:48:48;;;;;;;29.07;18.27;;;12.70;99.90;;;;;;4942452;29;20465;-81
2022/05/07 05:51:17;;;;;;;25.23;15.57;;;13.00;99.90;;;;;;4994979;28;20462;-81
2022/05/07 05:54:06;;;;;;;22.80;15.47;;;13.30;98.60;;;;;;5004076;28;20993;-82
2022/05/07 05:56:33;;;;;;;23.83;15.10;;;13.60;95.60;;;;;;5006964;28;20458;-81
2022/05/07 05:59:04;;;;;;;18.70;13.40;;;13.80;92.50;;;;;;5005549;28;20454;-83
2022/05/07 06:01:31;;;;;;;23.20;14.50;;;13.90;91.60;;;;;;5007019;28;20461;-82
2022/05/07 06:03:58;;;;;;;19.70;13.07;;;14.20;89.60;;;;;;5006547;28;20454;-83
2022/05/07 06:06:26;;;;;;;24.00;14.70;;;14.40;86.60;;;;;;5006609;28;20482;-82
2022/05/07 06:08:53;;;;;;;20.40;12.67;;;14.70;83.20;;;;;;5005690;28;20485;-82
2022/05/07 06:11:20;;;;;;;20.53;12.90;;;15.10;78.70;;;;;;5005510;28;20502;-82
2022/05/07 06:13:47;;;;;;;22.60;13.50;;;15.60;72.20;;;;;;4997329;28;20455;-82
2022/05/07 06:16:14;;;;;;;22.00;13.80;;;16.00;66.50;;;;;;5000102;28;20452;-82
2022/05/07 06:18:41;;;;;;;23.27;12.73;;;16.30;62.90;;;;;;5001255;28;20480;-82
2022/05/07 06:21:07;;;;;;;20.40;13.43;;;16.40;56.10;;;;;;5000535;28;20453;-82
2022/05/07 06:23:35;;;;;;;21.60;13.70;;;16.70;54.40;;;;;;5003578;28;20447;-82
2022/05/07 06:28:47;;;;;;;20.97;14.13;;;17.10;50.50;;;;;;4995527;28;20466;-82
2022/05/07 06:31:13;;;;;;;19.67;13.73;;;17.60;51.00;;;;;;4994412;28;20502;-83
2022/05/07 06:33:40;;;;;;;26.80;12.97;;;17.80;49.80;;;;;;4996081;28;20461;-82
2022/05/07 06:36:07;;;;;;;20.47;13.17;;;17.90;47.90;;;;;;4996029;28;20456;-82
2022/05/07 06:38:36;;;;;;;20.77;12.93;;;18.00;45.20;;;;;;4994647;28;20469;-82
2022/05/07 06:41:04;;;;;;;18.27;12.20;;;18.30;42.80;;;;;;4995111;28;20449;-81
2022/05/07 06:43:33;;;;;;;18.70;11.27;;;18.20;40.70;;;;;;4995411;28;20452;-81
2022/05/07 06:46:01;;;;;;;18.60;12.27;;;17.90;42.20;;;;;;4994905;28;20454;-82
2022/05/07 06:48:28;;;;;;;18.43;11.80;;;18.00;42.50;;;;;;4994395;28;20449;-82
2022/05/07 06:50:55;;;;;;;25.20;12.27;;;18.00;42.50;;;;;;4994864;28;20483;-82
2022/05/07 06:53:23;;;;;;;22.10;12.57;;;17.70;40.60;;;;;;4994968;28;20885;-81
2022/05/07 06:55:59;;;;;;;19.20;12.63;;;18.00;40.60;;;;;;4997811;28;20453;-82
2022/05/07 06:58:26;;;;;;;22.93;12.17;;;18.20;39.50;;;;;;4994607;28;20481;-81
2022/05/07 07:00:53;;;;;;;15.23;10.93;;;18.50;39.20;;;;;;4987608;28;20449;-81
2022/05/07 07:03:20;;;;;;;17.10;11.87;;;18.90;38.60;;;;;;4999569;28;20946;-84
2022/05/07 07:05:48;;;;;;;19.60;11.80;;;19.00;36.00;;;;;;4996430;28;20510;-81
2022/05/07 07:08:15;;;;;;;22.70;13.77;;;19.10;35.40;;;;;;4993203;28;20470;-81
2022/05/07 07:10:42;;;;;;;19.37;11.27;;;19.20;36.00;;;;;;4995445;28;20458;-81
2022/05/07 07:13:11;;;;;;;21.10;11.93;;;19.20;36.50;;;;;;4994786;28;20534;-82
2022/05/07 07:15:39;;;;;;;18.20;11.83;;;19.30;36.40;;;;;;4992262;28;20939;-81
2022/05/07 07:18:09;;;;;;;21.97;12.80;;;19.20;35.30;;;;;;4992963;28;20486;-81
2022/05/07 07:20:40;;;;;;;20.17;11.53;;;19.40;35.10;;;;;;4993551;28;20455;-81
2022/05/07 07:23:07;;;;;;;21.50;12.83;;;19.40;31.60;;;;;;4993162;28;20453;-81
2022/05/07 07:25:33;;;;;;;21.50;12.43;;;19.20;34.60;;;;;;4992640;28;20453;-81
2022/05/07 07:28:00;;;;;;;19.43;10.93;;;19.30;34.70;;;;;;4994648;28;20489;-83
2022/05/07 07:30:28;;;;;;;19.57;11.43;;;19.50;33.90;;;;;;4982596;28;20457;-81
2022/05/07 07:32:55;;;;;;;16.70;10.20;;;19.30;31.60;;;;;;4992879;28;20459;-81
2022/05/07 07:35:22;;;;;;;21.20;11.60;;;19.50;32.80;;;;;;4993696;28;20450;-81
2022/05/07 07:37:49;;;;;;;21.00;11.87;;;19.70;31.70;;;;;;4992410;28;20475;-81
2022/05/07 07:40:16;;;;;;;19.70;10.87;;;19.80;30.40;;;;;;4992787;28;20470;-82
2022/05/07 07:42:42;;;;;;;19.90;13.03;;;19.90;29.50;;;;;;4994506;28;20849;-80
2022/05/07 07:48:01;;;;;;;23.35;12.50;;;20.50;27.40;;;;;;4995229;28;20535;-83
2022/05/07 07:50:30;;;;;;;17.97;11.50;;;20.40;25.80;;;;;;4993840;28;20587;-85
2022/05/07 07:52:58;;;;;;;24.70;12.40;;;20.70;27.70;;;;;;4994306;28;20489;-84
2022/05/07 07:55:25;;;;;;;21.57;10.67;;;20.80;23.70;;;;;;4994347;28;20461;-85
2022/05/07 07:57:54;;;;;;;23.13;10.87;;;20.60;22.20;;;;;;4992991;28;20477;-84
2022/05/07 08:00:22;;;;;;;20.97;10.87;;;20.80;23.40;;;;;;4993536;28;20459;-84
2022/05/07 08:02:50;;;;;;;19.60;9.93;;;21.00;24.40;;;;;;4993824;28;20584;-84
2022/05/07 08:05:21;;;;;;;19.60;10.00;;;21.00;25.30;;;;;;4993807;28;20946;-84
2022/05/07 08:13:16;;;;;;;18.60;10.57;;;21.70;20.10;;;;;;4993786;28;20447;-85
2022/05/07 08:15:42;;;;;;;16.30;10.40;;;21.80;17.80;;;;;;4993906;28;20460;-85
2022/05/07 08:18:09;;;;;;;14.90;9.67;;;22.00;21.20;;;;;;4992848;28;20481;-84
2022/05/07 08:20:37;;;;;;;17.13;10.00;;;22.80;19.00;;;;;;4993516;28;20829;-85
2022/05/07 08:23:04;;;;;;;15.40;8.73;;;23.30;15.80;;;;;;4993636;28;20449;-85
2022/05/07 08:25:31;;;;;;;16.93;9.87;;;23.80;14.90;;;;;;4993528;28;20480;-85
2022/05/07 08:27:58;;;;;;;17.30;9.90;;;24.40;12.10;;;;;;4993336;28;20477;-84
2022/05/07 08:30:25;;;;;;;14.93;9.37;;;24.70;8.00;;;;;;4992807;28;20469;-84
2022/05/07 08:32:52;;;;;;;17.67;9.67;;;24.30;9.70;;;;;;4994038;28;20868;-83
2022/05/07 08:35:19;;;;;;;20.57;9.50;;;24.10;10.00;;;;;;4993898;28;20818;-82
2022/05/07 08:37:47;;;;;;;21.13;11.23;;;24.50;7.80;;;;;;4997912;28;21005;-82
2022/05/07 08:40:16;;;;;;;14.70;8.63;;;24.10;5.40;;;;;;4994400;28;20457;-83
2022/05/07 08:42:43;;;;;;;15.93;9.13;;;24.60;6.50;;;;;;4995599;28;20450;-82
2022/05/07 08:45:12;;;;;;;16.63;9.43;;;25.00;9.40;;;;;;4999419;28;20458;-82
2022/05/07 08:47:38;;;;;;;16.03;8.73;;;24.90;5.10;;;;;;5000753;28;20564;-82
2022/05/07 08:50:08;;;;;;;24.07;8.63;;;24.30;6.80;;;;;;4997404;28;20958;-82
2022/05/07 08:52:38;;;;;;;16.87;8.60;;;24.00;7.40;;;;;;4994904;28;20466;-82
2022/05/07 08:55:07;;;;;;;15.73;8.23;;;23.70;5.20;;;;;;4995202;28;20461;-82
2022/05/07 08:57:34;;;;;;;15.43;7.40;;;23.80;4.30;;;;;;4993990;28;20881;-82
2022/05/07 09:00:00;;;;;;;11.60;7.30;;;24.30;2.90;;;;;;4996433;28;20489;-82
2022/05/07 09:02:27;;;;;;;11.50;7.10;;;24.10;1.40;;;;;;4998126;28;20453;-84
2022/05/07 09:04:56;;;;;;;13.70;8.00;;;24.00;2.90;;;;;;4995937;28;20853;-83
2022/05/07 09:07:23;;;;;;;13.20;7.70;;;23.70;4.80;;;;;;4995228;28;21033;-82
2022/05/07 09:09:50;;;;;;;14.00;7.10;;;24.00;2.90;;;;;;4994457;28;20458;-83
2022/05/07 09:12:39;;;;;;;13.10;7.00;;;24.10;3.10;;;;;;4995104;28;20478;-84
2022/05/07 09:15:17;;;;;;;13.80;7.10;;;24.90;2.10;;;;;;4981911;28;21014;-85
2022/05/07 09:17:47;;;;;;;15.70;7.10;;;25.10;1.30;;;;;;4997593;28;20478;-85
2022/05/07 09:20:16;;;;;;;14.50;6.77;;;24.70;1.80;;;;;;4995722;28;20482;-84
2022/05/07 09:22:53;;;;;;;12.03;6.37;;;24.60;1.00;;;;;;4995556;28;21177;-85
2022/05/07 09:25:22;;;;;;;14.57;6.97;;;25.00;1.00;;;;;;4992177;28;20454;-86
2022/05/07 09:27:52;;;;;;;18.10;7.57;;;25.40;1.00;;;;;;4992753;28;20529;-86
2022/05/07 09:30:23;;;;;;;23.00;8.47;;;25.10;1.00;;;;;;4992164;28;20450;-84
2022/05/07 09:32:51;;;;;;;14.67;7.20;;;25.50;1.00;;;;;;4975440;28;20455;-84
2022/05/07 09:38:05;;;;;;;20.80;6.37;;;27.20;1.00;;;;;;4993437;28;20460;-85
2022/05/07 09:40:37;;;;;;;19.73;8.10;;;26.10;1.00;;;;;;4992489;28;20951;-84
2022/05/07 09:43:06;;;;;;;16.70;7.53;;;25.90;1.00;;;;;;4993813;28;20991;-85
2022/05/07 09:45:33;;;;;;;16.70;6.50;;;26.40;1.00;;;;;;4994833;28;20454;-85
2022/05/07 09:48:01;;;;;;;14.17;7.20;;;25.80;1.00;;;;;;4995079;28;20484;-84
2022/05/07 09:58:41;;;;;;;18.33;10.30;;;26.80;1.00;;;;;;4995693;28;20461;-84
2022/05/07 10:01:39;;;;;;;16.43;9.97;;;26.50;1.00;;;;;;4999973;28;20450;-84
2022/05/07 10:04:53;;;;;;;17.70;9.13;;;26.50;1.00;;;;;;5002183;28;20453;-83
2022/05/07 10:07:37;;;;;;;17.17;9.23;;;26.60;1.00;;;;;;4959830;28;20481;-81
2022/05/07 10:10:18;;;;;;;20.80;9.70;;;26.30;1.00;;;;;;4983491;28;20451;-85
2022/05/07 10:12:46;;;;;;;16.77;9.60;;;26.70;1.00;;;;;;5003657;28;20454;-83
2022/05/07 10:15:20;;;;;;;19.50;9.90;;;27.20;1.00;;;;;;5001032;28;20544;-85
2022/05/07 10:17:58;;;;;;;21.70;10.50;;;27.20;1.00;;;;;;4999202;28;20467;-84
2022/05/07 10:20:25;;;;;;;14.43;8.43;;;26.40;1.00;;;;;;4981571;28;20454;-84
2022/05/07 10:22:56;;;;;;;17.77;8.40;;;26.10;1.00;;;;;;4998106;28;20456;-83
2022/05/07 10:25:23;;;;;;;15.13;8.43;;;26.40;1.00;;;;;;4998876;28;20967;-85
2022/05/07 10:27:51;;;;;;;16.00;7.97;;;25.80;1.00;;;;;;4998516;28;21028;-85
2022/05/07 10:30:21;;;;;;;13.20;7.87;;;25.60;1.00;;;;;;4997808;28;20512;-83
2022/05/07 10:32:56;;;;;;;13.57;8.17;;;26.00;1.00;;;;;;4998939;28;20833;-84
2022/05/07 10:35:42;;;;;;;16.47;9.23;;;26.10;1.00;;;;;;4998633;28;20496;-84
2022/05/07 10:38:10;;;;;;;18.60;8.33;;;26.00;1.00;;;;;;4996933;28;20474;-84
2022/05/07 10:40:37;;;;;;;17.60;9.67;;;25.90;1.00;;;;;;5001004;28;20460;-83
2022/05/07 10:43:05;;;;;;;29.80;10.30;;;26.30;1.00;;;;;;5002662;28;20484;-82
2022/05/07 10:45:42;;;;;;;14.47;8.53;;;26.20;1.00;;;;;;5002432;28;20455;-85
2022/05/07 10:48:19;;;;;;;16.60;9.30;;;26.60;1.00;;;;;;5000357;28;20477;-83
2022/05/07 10:50:53;;;;;;;14.47;8.67;;;26.60;1.00;;;;;;5002372;28;20457;-83
2022/05/07 10:53:20;;;;;;;18.77;10.17;;;26.60;1.00;;;;;;5002318;28;20826;-84
2022/05/07 10:55:56;;;;;;;17.67;9.43;;;27.00;1.00;;;;;;5003446;28;20431;-83
2022/05/07 10:58:29;;;;;;;20.07;9.63;;;27.20;1.00;;;;;;5006753;28;20466;-84
2022/05/07 11:01:03;;;;;;;19.67;10.47;;;26.50;1.00;;;;;;5013574;28;20449;-83
2022/05/07 11:03:59;;;;;;;17.57;8.30;;;26.20;1.00;;;;;;5014515;28;20484;-83
2022/05/07 11:06:26;;;;;;;12.23;7.67;;;25.70;1.00;;;;;;5013792;28;20473;-83
2022/05/07 11:08:53;;;;;;;22.80;9.67;;;25.00;1.00;;;;;;5014342;28;20477;-83
2022/05/07 11:11:24;;;;;;;16.37;8.77;;;25.00;1.00;;;;;;5013234;28;20461;-82
2022/05/07 11:13:57;;;;;;;16.70;9.10;;;24.90;1.00;;;;;;5013129;28;20424;-83
2022/05/07 11:16:36;;;;;;;18.30;9.07;;;24.30;1.00;;;;;;5011465;28;20450;-81
2022/05/07 11:19:03;;;;;;;16.30;9.63;;;23.80;1.00;;;;;;5036023;23;21000;-85
2022/05/07 11:21:30;;;;;;;17.43;10.00;;;23.90;1.00;;;;;;5015905;28;20532;-85
2022/05/07 11:23:58;;;;;;;18.60;10.97;;;24.00;1.00;;;;;;5016162;28;21106;-84
2022/05/07 11:26:26;;;;;;;16.03;10.40;;;23.60;1.00;;;;;;5016528;28;20453;-84
2022/05/07 11:28:53;;;;;;;21.33;11.40;;;23.60;1.00;;;;;;5015304;28;21003;-84
2022/05/07 11:31:29;;;;;;;18.43;9.40;;;23.50;1.00;;;;;;5009017;28;20453;-85
2022/05/07 11:34:07;;;;;;;22.00;10.80;;;23.70;1.00;;;;;;5015964;28;20448;-85
2022/05/07 11:36:34;;;;;;;24.03;11.73;;;23.30;1.00;;;;;;4997309;28;20464;-85
2022/05/07 11:39:03;;;;;;;19.47;10.97;;;24.20;1.00;;;;;;4997119;28;20477;-86
2022/05/07 11:41:30;;;;;;;24.30;11.30;;;25.10;1.00;;;;;;5016654;28;20449;-85
2022/05/07 11:46:54;;;;;;;19.03;10.80;;;27.60;1.00;;;;;;4997645;28;20427;-86
2022/05/07 11:49:28;;;;;;;18.08;10.68;;;28.00;1.00;;;;;;4998146;28;20453;-84
2022/05/07 11:52:05;;;;;;;19.07;12.40;;;27.60;1.00;;;;;;5017158;28;20265;-86
2022/05/07 11:54:32;;;;;;;21.10;11.87;;;26.60;1.00;;;;;;5015739;28;20507;-86
2022/05/07 11:56:59;;;;;;;18.77;10.80;;;26.10;1.00;;;;;;5016380;28;20768;-87
2022/05/07 11:59:31;;;;;;;20.27;11.23;;;25.90;1.00;;;;;;5014651;28;20457;-86
2022/05/07 12:01:59;;;;;;;16.37;11.17;;;26.00;1.00;;;;;;5015837;28;20492;-87
2022/05/07 12:04:31;;;;;;;19.53;13.07;;;26.90;1.00;;;;;;5015309;28;20453;-87
2022/05/07 12:07:05;;;;;;;16.50;11.27;;;27.10;1.00;;;;;;5015166;28;20476;-84
2022/05/07 12:09:33;;;;;;;17.10;12.10;;;27.00;1.00;;;;;;5015035;28;20453;-85
2022/05/07 12:11:59;;;;;;;17.30;11.17;;;26.00;1.00;;;;;;5015644;28;20456;-87
2022/05/07 12:14:26;;;;;;;16.00;10.30;;;25.40;1.00;;;;;;5015419;28;20457;-87
2022/05/07 12:19:39;;;;;;;13.10;9.13;;;25.20;1.00;;;;;;5014215;28;20535;-86
2022/05/07 12:30:18;;;;;;;14.03;9.30;;;30.40;1.00;;;;;;5015105;28;20456;-86
2022/05/07 12:32:46;;;;;;;19.00;10.70;;;28.80;1.00;;;;;;5015735;28;20489;-86
2022/05/07 12:35:14;;;;;;;14.80;9.37;;;28.40;1.00;;;;;;5015532;28;20458;-86
2022/05/07 12:37:41;;;;;;;19.53;11.53;;;28.80;1.00;;;;;;5015428;28;20477;-86
2022/05/07 12:40:08;;;;;;;16.97;11.03;;;29.80;1.00;;;;;;4995588;28;20454;-85
2022/05/07 12:42:36;;;;;;;23.40;11.37;;;28.70;1.00;;;;;;4995694;28;20497;-86
2022/05/07 12:45:03;;;;;;;16.30;9.97;;;29.50;1.00;;;;;;5014773;28;20457;-87
2022/05/07 12:47:30;;;;;;;16.10;10.23;;;30.00;1.00;;;;;;5015667;28;20553;-87
2022/05/07 12:49:57;;;;;;;15.37;8.90;;;31.00;1.00;;;;;;5014580;28;20452;-87
2022/05/07 12:52:25;;;;;;;14.67;8.90;;;32.00;1.00;;;;;;5015926;28;20461;-86
2022/05/07 12:54:52;;;;;;;19.67;12.80;;;31.50;1.00;;;;;;5015462;28;20473;-86
2022/05/07 12:57:19;;;;;;;16.60;12.03;;;29.90;1.00;;;;;;5015529;28;20508;-87
2022/05/07 12:59:46;;;;;;;20.83;10.47;;;30.40;1.00;;;;;;5014337;28;20456;-85
2022/05/07 13:02:13;;;;;;;19.93;12.00;;;31.50;1.00;;;;;;5014437;28;20449;-87
2022/05/07 13:04:42;;;;;;;17.70;12.40;;;31.00;1.00;;;;;;5014633;28;20457;-85
2022/05/07 13:07:09;;;;;;;13.87;11.00;;;31.20;1.00;;;;;;5014578;28;20459;-86
2022/05/07 13:09:38;;;;;;;16.30;10.90;;;31.00;1.00;;;;;;5013724;28;20548;-86
2022/05/07 13:12:05;;;;;;;15.63;9.90;;;30.30;1.00;;;;;;5014611;28;20449;-86
2022/05/07 13:14:33;;;;;;;15.20;9.77;;;29.40;1.00;;;;;;5014480;28;20478;-84
2022/05/07 13:17:00;;;;;;;12.63;8.83;;;28.90;1.00;;;;;;5013326;28;20455;-85
2022/05/07 13:19:26;;;;;;;15.17;10.57;;;28.60;1.00;;;;;;5013930;28;20456;-85
2022/05/07 13:21:54;;;;;;;19.63;9.67;;;28.10;1.00;;;;;;5014082;28;20460;-86
2022/05/07 13:24:20;;;;;;;16.00;10.63;;;27.80;1.00;;;;;;5006411;28;20527;-86
2022/05/07 13:26:49;;;;;;;16.83;10.53;;;27.60;1.00;;;;;;5014148;28;22029;-86
2022/05/07 13:29:15;;;;;;;19.07;10.40;;;27.80;1.00;;;;;;5013665;28;20483;-85